Time;durP1;ratioP1;P1;durP2;ratioP2;P2;SDS_P1;SDS_P2;PMS_P1;PMS_P2;Temp;Humidity;BMP_temperature;BMP_pressure;BME280_temperature;BME280_humidity;BME280_pressure;Samples;Min_cycle;Max_cycle;Signal;HPM_P1;HPM_P2
2021/10/17 00:00:21;;;;;;;42.05;27.23;;;10.90;92.30;;;;;;4956971;29;20057;-73
2021/10/17 00:02:49;;;;;;;48.33;26.83;;;10.80;92.30;;;;;;4957284;29;20043;-72
2021/10/17 00:05:19;;;;;;;41.65;27.70;;;10.80;92.30;;;;;;4956471;29;20492;-73
2021/10/17 00:07:47;;;;;;;44.67;27.35;;;10.80;92.40;;;;;;4957772;29;20047;-72
2021/10/17 00:10:24;;;;;;;38.40;26.83;;;10.80;92.40;;;;;;4956864;29;20043;-72
2021/10/17 00:17:24;;;;;;;42.47;26.92;;;10.80;92.40;;;;;;4939628;29;20066;-73
2021/10/17 00:19:52;;;;;;;42.72;26.33;;;10.80;92.20;;;;;;4939361;29;20507;-73
2021/10/17 00:22:19;;;;;;;43.72;26.33;;;10.80;92.20;;;;;;4956839;29;20047;-73
2021/10/17 00:24:47;;;;;;;42.60;25.45;;;10.90;92.20;;;;;;4956639;29;20047;-74
2021/10/17 00:27:14;;;;;;;39.85;27.05;;;10.90;92.20;;;;;;4940030;29;20047;-73
2021/10/17 00:29:43;;;;;;;49.05;27.65;;;10.80;92.30;;;;;;4924328;29;20055;-73
2021/10/17 00:32:13;;;;;;;41.55;25.77;;;10.90;92.30;;;;;;4939798;29;20047;-73
2021/10/17 00:34:41;;;;;;;40.75;26.00;;;10.90;92.30;;;;;;4924419;29;20058;-73
2021/10/17 00:37:09;;;;;;;44.35;25.83;;;10.80;92.30;;;;;;4923561;29;20066;-73
2021/10/17 00:39:36;;;;;;;42.75;26.73;;;10.80;92.30;;;;;;4939347;29;20047;-73
2021/10/17 00:42:04;;;;;;;40.88;25.45;;;10.80;92.30;;;;;;4939529;29;20047;-73
2021/10/17 00:44:32;;;;;;;43.47;25.95;;;10.80;92.40;;;;;;4956037;29;20055;-73
2021/10/17 00:47:00;;;;;;;37.85;23.95;;;10.80;92.30;;;;;;4939640;29;20052;-73
2021/10/17 00:49:28;;;;;;;45.38;25.10;;;10.80;92.40;;;;;;4939002;29;20058;-74
2021/10/17 00:51:55;;;;;;;37.40;24.60;;;10.80;92.30;;;;;;4938936;29;20054;-73
2021/10/17 00:54:23;;;;;;;43.38;24.80;;;10.80;92.40;;;;;;4939081;29;20051;-73
2021/10/17 00:56:51;;;;;;;43.20;25.25;;;10.80;92.40;;;;;;4956353;29;20507;-72
2021/10/17 00:59:18;;;;;;;43.88;24.58;;;10.80;92.50;;;;;;4956254;29;20054;-73
2021/10/17 01:01:46;;;;;;;38.83;24.02;;;10.80;92.50;;;;;;4956093;29;20047;-73
2021/10/17 01:04:14;;;;;;;44.85;25.00;;;10.80;92.40;;;;;;4938775;29;20058;-72
2021/10/17 01:06:41;;;;;;;45.47;24.75;;;10.80;92.50;;;;;;4955991;29;20044;-72
2021/10/17 01:09:09;;;;;;;40.20;25.33;;;10.80;92.50;;;;;;4956624;29;20051;-72
2021/10/17 01:11:42;;;;;;;41.80;25.33;;;10.90;92.50;;;;;;4933231;29;20056;-73
2021/10/17 01:14:20;;;;;;;39.70;24.50;;;10.90;92.50;;;;;;4939388;29;20059;-73
2021/10/17 01:16:49;;;;;;;38.90;24.92;;;10.90;92.50;;;;;;4955362;29;20054;-73
2021/10/17 01:19:19;;;;;;;43.17;25.77;;;10.90;92.40;;;;;;4955286;29;20535;-73
2021/10/17 01:21:51;;;;;;;46.03;25.85;;;10.90;92.40;;;;;;4939145;29;20058;-73
2021/10/17 01:24:19;;;;;;;38.90;25.40;;;10.90;92.40;;;;;;4970844;28;20461;-73
2021/10/17 01:26:47;;;;;;;39.58;26.15;;;10.90;92.40;;;;;;4955540;29;20047;-73
2021/10/17 01:29:15;;;;;;;47.28;27.20;;;10.90;92.40;;;;;;4955893;29;20489;-72
2021/10/17 01:31:46;;;;;;;43.92;26.08;;;10.90;92.40;;;;;;4970550;28;20050;-73
2021/10/17 01:34:14;;;;;;;43.70;25.58;;;11.00;92.40;;;;;;4970306;28;20047;-72
2021/10/17 01:36:43;;;;;;;42.60;25.70;;;10.90;92.50;;;;;;4970003;28;20051;-72
2021/10/17 01:43:45;;;;;;;45.00;26.73;;;11.00;92.40;;;;;;4954983;29;20062;-72
2021/10/17 01:46:13;;;;;;;42.55;26.80;;;11.00;92.30;;;;;;4955124;28;20480;-73
2021/10/17 01:48:44;;;;;;;35.25;24.23;;;11.00;92.20;;;;;;4970091;28;20054;-73
2021/10/17 01:55:44;;;;;;;39.33;25.65;;;11.00;92.30;;;;;;4954744;29;20050;-72
2021/10/17 01:58:12;;;;;;;40.50;24.83;;;11.00;92.10;;;;;;4922339;29;20527;-73
2021/10/17 02:00:40;;;;;;;38.22;25.73;;;11.00;92.10;;;;;;4953863;29;20053;-73
2021/10/17 02:03:08;;;;;;;37.55;25.33;;;11.00;92.20;;;;;;4954128;29;20059;-73
2021/10/17 02:05:41;;;;;;;39.33;24.15;;;11.10;92.20;;;;;;4970078;28;20055;-73
2021/10/17 02:08:09;;;;;;;42.45;25.77;;;11.10;92.20;;;;;;4954967;29;20058;-73
2021/10/17 02:10:37;;;;;;;42.70;25.83;;;11.10;92.20;;;;;;4969466;28;20062;-73
2021/10/17 02:13:09;;;;;;;38.50;24.58;;;11.10;92.20;;;;;;4970320;28;20062;-74
2021/10/17 02:20:32;;;;;;;41.67;25.35;;;11.20;92.30;;;;;;4961667;28;20042;-73
2021/10/17 02:23:04;;;;;;;42.97;25.00;;;11.20;92.10;;;;;;4969868;28;20047;-72
2021/10/17 02:25:34;;;;;;;35.75;25.52;;;11.10;92.10;;;;;;4954476;29;20141;-72
2021/10/17 02:28:02;;;;;;;42.75;25.63;;;11.20;92.20;;;;;;4969707;28;20507;-73
2021/10/17 02:30:35;;;;;;;41.42;25.83;;;11.20;92.20;;;;;;4969883;28;20052;-73
2021/10/17 02:33:18;;;;;;;41.75;24.52;;;11.20;92.30;;;;;;4953195;29;20136;-73
2021/10/17 02:35:46;;;;;;;41.00;24.98;;;11.20;92.30;;;;;;4969309;28;20059;-73
2021/10/17 02:38:14;;;;;;;44.83;25.48;;;11.20;92.30;;;;;;4954566;29;20051;-73
2021/10/17 02:40:42;;;;;;;38.97;24.73;;;11.20;92.40;;;;;;4969859;28;20484;-73
2021/10/17 02:43:12;;;;;;;38.47;24.55;;;11.20;92.40;;;;;;4941198;29;20492;-73
2021/10/17 02:45:41;;;;;;;39.60;25.05;;;11.30;92.40;;;;;;4957958;29;20521;-73
2021/10/17 02:48:08;;;;;;;42.63;24.88;;;11.30;92.40;;;;;;4940956;29;20485;-73
2021/10/17 02:50:36;;;;;;;43.88;25.10;;;11.30;92.50;;;;;;4973156;28;20054;-73
2021/10/17 02:53:05;;;;;;;40.38;24.05;;;11.30;92.50;;;;;;4973688;28;20043;-73
2021/10/17 02:55:35;;;;;;;37.40;25.75;;;11.30;92.50;;;;;;4973599;28;20051;-73
2021/10/17 02:58:06;;;;;;;38.15;24.27;;;11.30;92.50;;;;;;4972956;28;20512;-73
2021/10/17 03:00:34;;;;;;;40.42;24.42;;;11.30;92.50;;;;;;4956846;29;20062;-73
2021/10/17 03:03:04;;;;;;;33.17;23.13;;;11.30;92.60;;;;;;4973258;28;20481;-73
2021/10/17 03:05:38;;;;;;;39.65;24.38;;;11.30;92.60;;;;;;4957180;29;20047;-74
2021/10/17 03:08:06;;;;;;;36.65;23.75;;;11.30;92.60;;;;;;4925260;29;20054;-73
2021/10/17 03:10:33;;;;;;;36.35;21.98;;;11.30;92.70;;;;;;4973096;28;20070;-73
2021/10/17 03:13:03;;;;;;;35.30;22.75;;;11.30;92.70;;;;;;4973459;28;20043;-74
2021/10/17 03:15:33;;;;;;;34.88;23.15;;;11.30;92.70;;;;;;4940531;29;20492;-74
2021/10/17 03:18:00;;;;;;;37.50;22.92;;;11.30;92.70;;;;;;4941392;29;20497;-74
2021/10/17 03:20:28;;;;;;;38.83;23.85;;;11.30;92.80;;;;;;4940868;29;20044;-74
2021/10/17 03:22:55;;;;;;;39.17;23.67;;;11.30;92.80;;;;;;4957859;29;20063;-74
2021/10/17 03:25:23;;;;;;;37.30;21.92;;;11.30;92.70;;;;;;4956692;28;20453;-74
2021/10/17 03:27:52;;;;;;;37.33;24.05;;;11.30;92.80;;;;;;4939948;29;20051;-74
2021/10/17 03:30:26;;;;;;;36.58;22.77;;;11.30;92.80;;;;;;4925601;29;20059;-73
2021/10/17 03:32:54;;;;;;;42.40;24.30;;;11.30;92.80;;;;;;4940738;29;20043;-73
2021/10/17 03:35:22;;;;;;;39.10;24.08;;;11.30;92.80;;;;;;4957931;29;20051;-74
2021/10/17 03:37:50;;;;;;;39.10;24.55;;;11.30;92.80;;;;;;4940765;29;20054;-74
2021/10/17 03:40:18;;;;;;;37.75;25.08;;;11.30;92.90;;;;;;4940610;29;20055;-73
2021/10/17 03:42:47;;;;;;;39.72;23.80;;;11.30;92.80;;;;;;4940569;29;20069;-73
2021/10/17 03:45:14;;;;;;;38.28;23.52;;;11.30;92.90;;;;;;4958207;29;20055;-72
2021/10/17 03:47:42;;;;;;;44.30;24.45;;;11.30;92.90;;;;;;4957524;29;20051;-73
2021/10/17 03:50:10;;;;;;;36.63;24.33;;;11.30;92.90;;;;;;4940215;29;20051;-73
2021/10/17 03:52:37;;;;;;;36.25;22.80;;;11.30;92.90;;;;;;4939918;28;20075;-73
2021/10/17 03:55:08;;;;;;;35.70;23.75;;;11.30;93.00;;;;;;4971929;28;20062;-73
2021/10/17 03:57:35;;;;;;;40.97;24.67;;;11.30;93.00;;;;;;4940682;29;20047;-73
2021/10/17 04:04:37;;;;;;;38.65;24.40;;;11.30;93.00;;;;;;4939897;29;20043;-74
2021/10/17 04:07:05;;;;;;;44.15;25.33;;;11.30;92.90;;;;;;4957895;29;20047;-73
2021/10/17 04:09:37;;;;;;;38.17;23.35;;;11.30;92.90;;;;;;4939911;29;20058;-73
2021/10/17 04:12:06;;;;;;;33.67;22.00;;;11.30;93.00;;;;;;4952040;29;20063;-73
2021/10/17 04:14:42;;;;;;;34.97;22.88;;;11.30;93.10;;;;;;4957021;28;20054;-73
2021/10/17 04:17:10;;;;;;;37.13;23.40;;;11.30;93.10;;;;;;4955780;29;20066;-74
2021/10/17 04:19:38;;;;;;;38.88;24.13;;;11.30;93.10;;;;;;4956676;29;20047;-74
2021/10/17 04:22:06;;;;;;;39.25;23.90;;;11.30;93.10;;;;;;4955437;29;20054;-75
2021/10/17 04:24:34;;;;;;;37.53;22.73;;;11.30;93.10;;;;;;4971725;28;20047;-74
2021/10/17 04:27:07;;;;;;;44.42;24.00;;;11.40;93.20;;;;;;4971056;28;20051;-74
2021/10/17 04:29:37;;;;;;;42.03;23.98;;;11.30;93.20;;;;;;4955749;29;20051;-74
2021/10/17 04:32:06;;;;;;;42.17;24.95;;;11.40;93.10;;;;;;4971472;28;20055;-74
2021/10/17 04:34:34;;;;;;;37.95;23.45;;;11.40;93.20;;;;;;4971556;28;20051;-74
2021/10/17 04:37:03;;;;;;;35.75;21.30;;;11.40;93.20;;;;;;4955392;29;20058;-74
2021/10/17 04:39:31;;;;;;;37.38;24.10;;;11.40;93.20;;;;;;4957050;29;20059;-74
2021/10/17 04:41:59;;;;;;;41.80;24.73;;;11.40;93.20;;;;;;4971497;28;20047;-74
2021/10/17 04:44:27;;;;;;;42.28;26.02;;;11.50;93.20;;;;;;4955711;29;20051;-74
2021/10/17 04:46:54;;;;;;;39.28;23.23;;;11.40;93.20;;;;;;4971288;28;20051;-74
2021/10/17 04:49:25;;;;;;;40.25;25.63;;;11.50;93.30;;;;;;4939398;29;20397;-74
2021/10/17 04:51:53;;;;;;;40.75;25.08;;;11.50;93.30;;;;;;4955938;29;20043;-74
2021/10/17 04:54:21;;;;;;;40.80;23.77;;;11.50;93.30;;;;;;4956475;28;20058;-74
2021/10/17 04:56:50;;;;;;;38.83;24.75;;;11.50;93.30;;;;;;4954583;29;20550;-74
2021/10/17 04:59:21;;;;;;;38.40;23.92;;;11.50;93.40;;;;;;4955532;29;20043;-74
2021/10/17 05:01:54;;;;;;;32.70;21.42;;;11.50;93.40;;;;;;4971534;28;20051;-74
2021/10/17 05:04:22;;;;;;;35.33;23.35;;;11.50;93.40;;;;;;4955226;28;20058;-74
2021/10/17 05:06:52;;;;;;;37.25;23.00;;;11.50;93.40;;;;;;4970779;28;20058;-74
2021/10/17 05:09:20;;;;;;;25.10;18.83;;;11.50;93.40;;;;;;4970830;28;20051;-75
2021/10/17 05:11:47;;;;;;;26.05;18.67;;;11.50;93.40;;;;;;4954582;29;20058;-76
2021/10/17 05:14:17;;;;;;;31.42;21.48;;;11.50;93.40;;;;;;4939356;29;20044;-75
2021/10/17 05:16:46;;;;;;;26.17;20.60;;;11.50;93.40;;;;;;4954834;29;20070;-75
2021/10/17 05:19:14;;;;;;;31.73;21.70;;;11.50;93.40;;;;;;4954963;29;20073;-75
2021/10/17 05:21:44;;;;;;;22.48;17.70;;;11.50;93.40;;;;;;4955394;29;20051;-75
2021/10/17 05:24:12;;;;;;;24.15;17.55;;;11.50;93.50;;;;;;4954620;29;20051;-75
2021/10/17 05:26:40;;;;;;;27.17;18.20;;;11.50;93.50;;;;;;4954460;29;20062;-75
2021/10/17 05:29:08;;;;;;;25.00;17.95;;;11.50;93.40;;;;;;4954691;29;20513;-77
2021/10/17 05:31:35;;;;;;;25.83;19.17;;;11.50;93.40;;;;;;4955258;29;20043;-76
2021/10/17 05:34:03;;;;;;;28.30;19.30;;;11.50;93.40;;;;;;4953886;29;20469;-73
2021/10/17 05:36:31;;;;;;;27.40;20.02;;;11.50;93.40;;;;;;4970402;28;20051;-80
2021/10/17 05:38:59;;;;;;;29.45;21.38;;;11.50;93.40;;;;;;4970955;28;20062;-74
2021/10/17 05:41:27;;;;;;;28.70;19.95;;;11.50;93.50;;;;;;4955073;29;20100;-77
2021/10/17 05:43:56;;;;;;;40.92;26.17;;;11.50;93.50;;;;;;4954800;29;20054;-74
2021/10/17 05:46:24;;;;;;;34.53;22.65;;;11.50;93.60;;;;;;4969985;28;20055;-75
2021/10/17 05:48:53;;;;;;;36.22;22.85;;;11.50;93.60;;;;;;4954205;29;20497;-76
2021/10/17 05:51:21;;;;;;;26.90;20.98;;;11.50;93.60;;;;;;4954539;29;20062;-75
2021/10/17 05:53:49;;;;;;;30.65;21.98;;;11.50;93.70;;;;;;4954131;29;20058;-75
2021/10/17 05:56:18;;;;;;;33.60;22.08;;;11.50;93.60;;;;;;4970722;28;20396;-75
2021/10/17 05:58:45;;;;;;;33.85;22.52;;;11.50;93.60;;;;;;4955443;29;20058;-75
2021/10/17 06:05:48;;;;;;;35.88;23.02;;;11.50;93.70;;;;;;4954975;28;20047;-75
2021/10/17 06:08:18;;;;;;;36.97;24.00;;;11.60;93.60;;;;;;4953958;29;20047;-75
2021/10/17 06:10:46;;;;;;;61.67;24.98;;;11.50;93.60;;;;;;4954237;29;20051;-76
2021/10/17 06:13:14;;;;;;;35.15;23.60;;;11.60;93.70;;;;;;4953800;29;20051;-76
2021/10/17 06:15:42;;;;;;;41.25;24.83;;;11.60;93.70;;;;;;4969351;28;20074;-76
2021/10/17 06:22:44;;;;;;;36.53;23.80;;;11.60;93.80;;;;;;4955235;28;20031;-76
2021/10/17 06:25:12;;;;;;;32.53;22.08;;;11.60;93.70;;;;;;4955102;29;20047;-76
2021/10/17 06:27:41;;;;;;;36.97;23.73;;;11.60;93.80;;;;;;4970386;28;20058;-76
2021/10/17 06:30:09;;;;;;;38.03;24.15;;;11.60;93.80;;;;;;4954227;29;20120;-76
2021/10/17 06:32:36;;;;;;;38.80;24.63;;;11.60;93.80;;;;;;4953390;29;20047;-76
2021/10/17 06:35:05;;;;;;;33.25;22.23;;;11.60;93.80;;;;;;4954187;29;20058;-76
2021/10/17 06:37:33;;;;;;;37.65;24.08;;;11.60;93.90;;;;;;4954069;29;20043;-76
2021/10/17 06:40:00;;;;;;;38.72;24.42;;;11.70;93.90;;;;;;4970269;28;20496;-75
2021/10/17 06:42:29;;;;;;;39.05;23.00;;;11.70;93.90;;;;;;4954211;29;20043;-76
2021/10/17 06:45:15;;;;;;;35.35;23.35;;;11.70;93.90;;;;;;4954190;28;20047;-76
2021/10/17 06:47:43;;;;;;;36.45;23.08;;;11.70;93.90;;;;;;4953940;29;20047;-76
2021/10/17 06:50:13;;;;;;;39.38;23.33;;;11.70;93.90;;;;;;4952961;29;20051;-75
2021/10/17 06:52:43;;;;;;;36.78;22.85;;;11.70;93.90;;;;;;4952983;29;20062;-75
2021/10/17 06:55:12;;;;;;;35.97;22.70;;;11.70;94.00;;;;;;4953047;29;20047;-75
2021/10/17 06:57:40;;;;;;;34.75;21.40;;;11.70;93.90;;;;;;4969549;28;20050;-75
2021/10/17 07:00:09;;;;;;;33.80;22.30;;;11.70;94.00;;;;;;4970345;28;20373;-76
2021/10/17 07:02:41;;;;;;;35.33;22.77;;;11.70;94.00;;;;;;4938830;29;20051;-76
2021/10/17 07:05:10;;;;;;;31.35;21.30;;;11.70;94.00;;;;;;4953307;29;20043;-76
2021/10/17 07:07:37;;;;;;;34.15;22.27;;;11.70;94.10;;;;;;4953876;29;20051;-76
2021/10/17 07:10:07;;;;;;;36.47;22.67;;;11.80;94.10;;;;;;4938153;29;20051;-76
2021/10/17 07:12:53;;;;;;;38.65;23.83;;;11.80;94.10;;;;;;4954616;29;20043;-76
2021/10/17 07:15:23;;;;;;;41.13;25.35;;;11.80;94.10;;;;;;4968789;28;20415;-75
2021/10/17 07:17:56;;;;;;;36.65;21.85;;;11.80;94.10;;;;;;4954135;29;20043;-75
2021/10/17 07:20:32;;;;;;;36.35;24.35;;;11.80;94.20;;;;;;4953470;29;20501;-76
2021/10/17 07:22:59;;;;;;;35.20;21.67;;;11.80;94.20;;;;;;4954525;29;20047;-76
2021/10/17 07:25:31;;;;;;;39.70;25.75;;;11.80;94.30;;;;;;4969391;28;20051;-76
2021/10/17 07:27:59;;;;;;;43.55;25.30;;;11.80;94.30;;;;;;4954513;28;20054;-76
2021/10/17 07:30:27;;;;;;;34.42;23.17;;;11.80;94.30;;;;;;4973012;28;20493;-77
2021/10/17 07:32:56;;;;;;;42.08;25.15;;;11.80;94.30;;;;;;4972196;28;20504;-76
2021/10/17 07:35:24;;;;;;;37.67;23.05;;;11.80;94.30;;;;;;4956388;29;20062;-77
2021/10/17 07:37:52;;;;;;;45.42;27.83;;;11.80;94.30;;;;;;4972346;28;20485;-75
2021/10/17 07:40:21;;;;;;;37.78;25.00;;;11.80;94.30;;;;;;4972100;28;20062;-76
2021/10/17 07:42:50;;;;;;;36.85;23.20;;;11.80;94.30;;;;;;4956430;29;20519;-76
2021/10/17 07:45:24;;;;;;;33.13;22.38;;;11.80;94.30;;;;;;4956859;29;20054;-77
2021/10/17 07:47:57;;;;;;;36.35;23.50;;;11.80;94.30;;;;;;4957425;29;20062;-77
2021/10/17 07:50:26;;;;;;;36.50;23.02;;;11.80;94.30;;;;;;4972640;28;20054;-77
2021/10/17 07:52:54;;;;;;;32.47;22.13;;;11.80;94.30;;;;;;4956843;29;20382;-77
2021/10/17 07:55:30;;;;;;;35.95;22.77;;;11.80;94.30;;;;;;4956981;29;20046;-76
2021/10/17 07:58:00;;;;;;;34.03;22.02;;;11.90;94.30;;;;;;4972924;28;20477;-77
2021/10/17 08:00:34;;;;;;;30.23;20.70;;;11.90;94.20;;;;;;4956513;29;20047;-76
2021/10/17 08:03:25;;;;;;;35.83;22.95;;;11.90;94.20;;;;;;4956654;28;20071;-75
2021/10/17 08:06:12;;;;;;;36.92;23.77;;;12.00;94.10;;;;;;4950212;28;20066;-75
2021/10/17 08:08:40;;;;;;;30.23;19.30;;;12.00;94.10;;;;;;4956420;29;20055;-75
2021/10/17 08:11:09;;;;;;;45.13;22.83;;;12.00;94.00;;;;;;4972282;28;20390;-76
2021/10/17 08:13:37;;;;;;;32.75;22.45;;;12.00;94.00;;;;;;4939448;29;20394;-76
2021/10/17 08:16:06;;;;;;;33.88;21.88;;;12.00;94.00;;;;;;4939612;29;20060;-77
2021/10/17 08:18:41;;;;;;;30.45;20.67;;;12.10;94.00;;;;;;4940224;29;20043;-75
2021/10/17 08:21:09;;;;;;;34.00;23.00;;;12.10;93.90;;;;;;4939706;29;20043;-76
2021/10/17 08:23:43;;;;;;;32.88;22.58;;;12.10;93.90;;;;;;4943337;29;20052;-76
2021/10/17 08:26:13;;;;;;;32.58;21.00;;;12.10;93.90;;;;;;4940538;29;20043;-75
2021/10/17 08:28:42;;;;;;;21.85;16.25;;;12.10;93.80;;;;;;4940186;29;20055;-75
2021/10/17 08:31:18;;;;;;;23.15;17.38;;;12.20;93.80;;;;;;4940496;29;20043;-75
2021/10/17 08:33:46;;;;;;;28.45;21.02;;;12.20;93.80;;;;;;4939293;29;20066;-75
2021/10/17 08:36:17;;;;;;;23.88;18.17;;;12.20;93.70;;;;;;4957337;29;20059;-76
2021/10/17 08:39:07;;;;;;;21.50;15.00;;;12.20;93.70;;;;;;4939089;28;20050;-75
2021/10/17 08:41:47;;;;;;;21.55;15.15;;;12.20;93.60;;;;;;4939808;29;20059;-81
2021/10/17 08:44:18;;;;;;;21.17;14.50;;;12.20;93.50;;;;;;4938361;29;20078;-77
2021/10/17 08:47:07;;;;;;;19.80;14.88;;;12.20;93.40;;;;;;4938818;29;20054;-78
2021/10/17 08:49:43;;;;;;;16.45;12.90;;;12.20;93.30;;;;;;4939699;29;20058;-80
2021/10/17 08:52:12;;;;;;;19.42;14.13;;;12.20;93.20;;;;;;4939991;29;20065;-77
2021/10/17 08:54:48;;;;;;;18.52;14.57;;;12.20;93.10;;;;;;4924007;29;20058;-77
2021/10/17 08:57:17;;;;;;;19.35;14.68;;;12.20;93.00;;;;;;4938442;29;20066;-75
2021/10/17 08:59:49;;;;;;;19.13;15.15;;;12.30;93.00;;;;;;4955399;29;20058;-76
2021/10/17 09:02:22;;;;;;;19.02;14.65;;;12.30;93.00;;;;;;4938776;29;20055;-76
2021/10/17 09:05:09;;;;;;;21.85;16.45;;;12.30;92.90;;;;;;4939976;29;20496;-76
2021/10/17 09:07:53;;;;;;;21.13;16.85;;;12.30;92.90;;;;;;4953362;29;20043;-75
2021/10/17 09:10:41;;;;;;;21.45;16.33;;;12.40;92.80;;;;;;4939186;29;20062;-76
2021/10/17 09:13:15;;;;;;;20.35;15.77;;;12.40;92.80;;;;;;4956556;29;20043;-76
2021/10/17 09:15:44;;;;;;;17.95;14.02;;;12.40;92.70;;;;;;4956409;29;20119;-76
2021/10/17 09:18:16;;;;;;;15.60;13.43;;;12.50;92.70;;;;;;4955256;29;20050;-76
2021/10/17 09:20:49;;;;;;;20.05;14.25;;;12.50;92.50;;;;;;4939627;29;20393;-76
2021/10/17 09:23:22;;;;;;;19.17;12.85;;;12.60;92.40;;;;;;4956153;28;20054;-76
2021/10/17 09:25:52;;;;;;;16.33;12.13;;;12.70;92.20;;;;;;4955555;28;20073;-76
2021/10/17 09:28:32;;;;;;;14.88;11.27;;;12.70;91.90;;;;;;4956019;29;20043;-77
2021/10/17 09:31:06;;;;;;;14.10;11.05;;;12.70;91.80;;;;;;4954445;29;20062;-76
2021/10/17 09:33:51;;;;;;;14.85;11.15;;;12.80;91.40;;;;;;4955358;29;20044;-83
2021/10/17 09:36:26;;;;;;;13.02;10.40;;;12.80;91.30;;;;;;4970634;28;20051;-79
2021/10/17 09:39:13;;;;;;;15.68;11.60;;;12.80;90.90;;;;;;4955774;29;20063;-79
2021/10/17 09:42:07;;;;;;;11.85;10.43;;;12.90;90.80;;;;;;4955249;28;20432;-77
2021/10/17 09:44:48;;;;;;;15.18;11.82;;;13.00;90.90;;;;;;4954352;29;20047;-75
2021/10/17 09:47:15;;;;;;;17.02;10.77;;;13.10;90.80;;;;;;4954523;29;20473;-76
2021/10/17 09:49:46;;;;;;;15.93;11.85;;;13.20;90.80;;;;;;4955130;29;20397;-76
2021/10/17 09:52:19;;;;;;;15.75;13.00;;;13.30;90.60;;;;;;4954533;28;20062;-77
2021/10/17 09:54:48;;;;;;;17.58;12.52;;;13.50;90.60;;;;;;4955529;29;20388;-77
2021/10/17 09:57:17;;;;;;;14.38;12.32;;;13.60;90.50;;;;;;4955830;29;20047;-77
2021/10/17 09:59:45;;;;;;;18.35;13.02;;;13.70;90.30;;;;;;4955327;29;20039;-77
2021/10/17 10:02:14;;;;;;;18.27;12.95;;;13.70;90.10;;;;;;4955518;28;20102;-77
2021/10/17 10:04:47;;;;;;;15.10;12.10;;;13.80;89.90;;;;;;4954727;28;20059;-76
2021/10/17 10:07:23;;;;;;;14.82;12.65;;;13.80;89.70;;;;;;4955376;29;20047;-77
2021/10/17 10:09:55;;;;;;;13.88;11.68;;;13.80;89.50;;;;;;4955247;29;20051;-76
2021/10/17 10:12:24;;;;;;;16.88;13.18;;;13.90;89.60;;;;;;4955116;29;20043;-76
2021/10/17 10:14:54;;;;;;;18.13;13.30;;;13.90;89.10;;;;;;4954012;29;20492;-76
2021/10/17 10:17:23;;;;;;;15.93;12.00;;;13.90;89.20;;;;;;4955109;29;20054;-76
2021/10/17 10:19:51;;;;;;;16.25;11.98;;;14.00;89.20;;;;;;4955604;29;20050;-77
2021/10/17 10:22:19;;;;;;;13.77;11.38;;;14.00;88.90;;;;;;4957805;29;20047;-77
2021/10/17 10:24:53;;;;;;;14.52;11.68;;;14.00;88.60;;;;;;4956461;29;20043;-76
2021/10/17 10:27:22;;;;;;;15.35;12.07;;;14.00;88.40;;;;;;4922846;29;20055;-76
2021/10/17 10:29:50;;;;;;;15.43;12.18;;;13.90;88.60;;;;;;4954418;29;20062;-76
2021/10/17 10:32:23;;;;;;;12.65;11.25;;;14.00;88.70;;;;;;4954649;29;20056;-76
2021/10/17 10:34:55;;;;;;;15.63;11.65;;;14.00;88.40;;;;;;4954804;29;20418;-78
2021/10/17 10:37:25;;;;;;;14.45;10.43;;;14.10;88.40;;;;;;4970062;28;20477;-77
2021/10/17 10:40:07;;;;;;;14.95;11.32;;;14.20;88.30;;;;;;4954579;29;20044;-76
2021/10/17 10:42:41;;;;;;;12.55;10.05;;;14.20;88.10;;;;;;4954659;29;20055;-77
2021/10/17 10:45:33;;;;;;;14.75;11.80;;;14.30;87.60;;;;;;4954474;29;20054;-77
2021/10/17 10:48:16;;;;;;;13.85;11.13;;;14.40;87.50;;;;;;4938074;29;20059;-76
2021/10/17 10:50:55;;;;;;;15.05;11.15;;;14.50;87.50;;;;;;4922161;29;20059;-76
2021/10/17 10:53:51;;;;;;;12.93;10.40;;;14.60;87.40;;;;;;4970184;28;20477;-76
2021/10/17 10:56:37;;;;;;;11.73;10.52;;;14.70;86.90;;;;;;4955749;29;20050;-76
2021/10/17 10:59:06;;;;;;;12.38;9.55;;;14.70;86.60;;;;;;4955594;29;20066;-77
2021/10/17 11:01:53;;;;;;;10.85;9.70;;;14.80;86.50;;;;;;4953989;29;20070;-77
2021/10/17 11:04:45;;;;;;;14.00;10.18;;;14.90;86.30;;;;;;4940363;29;20062;-77
2021/10/17 11:07:16;;;;;;;13.93;9.55;;;15.00;86.10;;;;;;4940928;29;20080;-76
2021/10/17 11:09:46;;;;;;;12.35;10.00;;;15.00;85.50;;;;;;4941425;29;20047;-76
2021/10/17 11:12:38;;;;;;;12.75;10.73;;;15.00;85.40;;;;;;4957146;29;20055;-77
2021/10/17 11:15:11;;;;;;;13.55;9.60;;;15.00;85.70;;;;;;4958407;29;20066;-76
2021/10/17 11:17:49;;;;;;;;;;;15.00;85.50;;;;;;4959008;29;20055;-77
2021/10/17 11:20:19;;;;;;;12.80;9.38;;;15.00;85.10;;;;;;4940566;29;20299;-76
2021/10/17 11:22:48;;;;;;;13.75;9.82;;;14.90;84.80;;;;;;4958510;29;20047;-77
2021/10/17 11:25:18;;;;;;;10.60;8.85;;;15.00;85.00;;;;;;4957785;29;20054;-76
2021/10/17 11:27:47;;;;;;;10.60;8.70;;;15.00;84.70;;;;;;4957934;29;20058;-76
2021/10/17 11:30:22;;;;;;;11.40;8.85;;;15.10;84.30;;;;;;4940376;29;20055;-76
2021/10/17 11:32:51;;;;;;;10.88;8.20;;;15.20;84.20;;;;;;4940692;29;20489;-76
2021/10/17 11:35:29;;;;;;;12.98;8.48;;;15.30;82.60;;;;;;4972483;28;20047;-77
2021/10/17 11:37:58;;;;;;;10.68;7.82;;;15.40;83.00;;;;;;4972744;28;20051;-76
2021/10/17 11:40:30;;;;;;;9.13;7.47;;;15.60;82.80;;;;;;4972739;28;20104;-76
2021/10/17 11:43:00;;;;;;;11.32;7.47;;;15.80;82.20;;;;;;4957156;29;20311;-77
2021/10/17 11:45:34;;;;;;;8.65;7.68;;;15.90;81.70;;;;;;4956122;29;20071;-77
2021/10/17 11:48:04;;;;;;;11.05;8.20;;;16.00;81.10;;;;;;4958073;29;20051;-75
2021/10/17 11:50:38;;;;;;;9.82;8.13;;;16.00;81.10;;;;;;4925241;29;20477;-77
2021/10/17 11:53:08;;;;;;;11.82;8.00;;;16.20;81.40;;;;;;4957428;29;20050;-78
2021/10/17 11:55:39;;;;;;;9.00;7.90;;;16.20;80.70;;;;;;4939373;29;20082;-77
2021/10/17 11:58:15;;;;;;;13.00;7.78;;;16.10;80.20;;;;;;4940645;29;20058;-77
2021/10/17 12:00:46;;;;;;;9.52;8.07;;;16.00;80.30;;;;;;4940045;29;20039;-76
2021/10/17 12:03:19;;;;;;;11.77;7.78;;;16.00;81.00;;;;;;4971614;28;20051;-77
2021/10/17 12:05:48;;;;;;;9.75;7.68;;;16.00;81.20;;;;;;4940458;29;20065;-78
2021/10/17 12:08:23;;;;;;;10.07;8.45;;;16.00;81.00;;;;;;4956647;29;20047;-77
2021/10/17 12:10:58;;;;;;;11.63;8.40;;;16.00;81.10;;;;;;4972088;28;20071;-76
2021/10/17 12:13:27;;;;;;;9.52;8.43;;;15.80;81.30;;;;;;4939199;29;20118;-76
2021/10/17 12:16:04;;;;;;;11.80;9.23;;;15.80;81.60;;;;;;4939448;29;20054;-76
2021/10/17 12:18:32;;;;;;;9.48;8.45;;;16.00;81.70;;;;;;4940410;29;20052;-77
2021/10/17 12:21:01;;;;;;;11.80;9.25;;;16.00;81.90;;;;;;4958283;29;20132;-77
2021/10/17 12:23:29;;;;;;;11.73;9.27;;;16.00;81.70;;;;;;4959979;29;20047;-77
2021/10/17 12:30:50;;;;;;;10.52;8.35;;;16.00;81.70;;;;;;4956384;29;20039;-77
2021/10/17 12:33:30;;;;;;;12.63;8.45;;;16.00;81.70;;;;;;4957141;29;20393;-75
2021/10/17 12:35:59;;;;;;;10.75;8.10;;;16.10;81.90;;;;;;4940112;29;20054;-77
2021/10/17 12:38:35;;;;;;;11.05;8.18;;;16.20;82.10;;;;;;4939883;29;20062;-77
2021/10/17 12:41:05;;;;;;;19.08;8.48;;;16.30;81.40;;;;;;4956765;29;20047;-76
2021/10/17 12:43:38;;;;;;;10.73;8.73;;;16.40;81.20;;;;;;4957032;29;20508;-76
2021/10/17 12:46:09;;;;;;;10.60;8.05;;;16.40;81.30;;;;;;4924012;29;20047;-76
2021/10/17 12:48:43;;;;;;;8.40;7.60;;;16.40;81.40;;;;;;4956731;29;20473;-77
2021/10/17 12:51:34;;;;;;;9.98;8.00;;;16.40;81.30;;;;;;4955641;29;20047;-76
2021/10/17 12:54:04;;;;;;;10.32;7.80;;;16.40;81.30;;;;;;4956941;29;20503;-76
2021/10/17 12:56:33;;;;;;;10.13;8.20;;;16.40;81.00;;;;;;4939631;29;20052;-76
2021/10/17 12:59:06;;;;;;;9.82;7.45;;;16.30;80.30;;;;;;4970618;28;20047;-76
2021/10/17 13:01:34;;;;;;;11.25;8.20;;;16.20;80.70;;;;;;4955586;29;20059;-75
2021/10/17 13:04:11;;;;;;;13.05;8.43;;;16.10;81.10;;;;;;4956124;29;20412;-76
2021/10/17 13:11:11;;;;;;;7.90;7.13;;;16.10;81.50;;;;;;4955590;28;20405;-76
2021/10/17 13:13:39;;;;;;;10.48;8.50;;;16.20;81.50;;;;;;4955364;29;20059;-75
2021/10/17 13:16:07;;;;;;;10.38;7.18;;;16.20;81.40;;;;;;4938513;29;20066;-77
2021/10/17 13:18:35;;;;;;;9.02;7.18;;;16.30;81.40;;;;;;4955698;29;20054;-75
2021/10/17 13:25:40;;;;;;;9.20;6.95;;;16.20;80.80;;;;;;4938400;29;20043;-75
2021/10/17 13:28:09;;;;;;;9.25;7.03;;;16.10;80.60;;;;;;4970495;28;20407;-75
2021/10/17 13:30:36;;;;;;;8.35;7.10;;;16.00;80.90;;;;;;4969647;28;20055;-76
2021/10/17 13:33:08;;;;;;;11.20;6.93;;;16.00;81.20;;;;;;4955788;28;20058;-76
2021/10/17 13:35:38;;;;;;;10.70;6.78;;;16.00;81.30;;;;;;4971004;28;20054;-76